sensor_id;sensor_type;location;lat;lon;timestamp;P1;durP1;ratioP1;P2;durP2;ratioP2
31114;SDS011;17764;47.152;9.828;2022-08-01T00:02:06;1.08;;;1.00;;
31114;SDS011;17764;47.152;9.828;2022-08-01T00:04:32;1.40;;;1.13;;
31114;SDS011;17764;47.152;9.828;2022-08-01T00:06:58;1.27;;;0.88;;
31114;SDS011;17764;47.152;9.828;2022-08-01T00:09:25;1.88;;;1.20;;
31114;SDS011;17764;47.152;9.828;2022-08-01T00:11:51;1.33;;;0.90;;
31114;SDS011;17764;47.152;9.828;2022-08-01T00:14:17;1.10;;;1.00;;
31114;SDS011;17764;47.152;9.828;2022-08-01T00:16:43;1.20;;;1.10;;
31114;SDS011;17764;47.152;9.828;2022-08-01T00:19:09;1.27;;;1.17;;
31114;SDS011;17764;47.152;9.828;2022-08-01T00:21:35;2.13;;;1.10;;
31114;SDS011;17764;47.152;9.828;2022-08-01T00:24:01;1.42;;;1.05;;
31114;SDS011;17764;47.152;9.828;2022-08-01T00:26:27;1.67;;;1.00;;
31114;SDS011;17764;47.152;9.828;2022-08-01T00:28:53;1.45;;;1.00;;
31114;SDS011;17764;47.152;9.828;2022-08-01T00:31:19;1.20;;;1.10;;
31114;SDS011;17764;47.152;9.828;2022-08-01T00:33:45;1.20;;;0.90;;
31114;SDS011;17764;47.152;9.828;2022-08-01T00:36:11;1.85;;;1.13;;
31114;SDS011;17764;47.152;9.828;2022-08-01T00:38:37;2.33;;;0.88;;
31114;SDS011;17764;47.152;9.828;2022-08-01T00:41:03;1.60;;;1.10;;
31114;SDS011;17764;47.152;9.828;2022-08-01T00:43:29;1.33;;;0.90;;
31114;SDS011;17764;47.152;9.828;2022-08-01T00:45:55;2.08;;;1.20;;
31114;SDS011;17764;47.152;9.828;2022-08-01T00:48:21;1.25;;;1.05;;
31114;SDS011;17764;47.152;9.828;2022-08-01T00:50:47;1.08;;;0.98;;
31114;SDS011;17764;47.152;9.828;2022-08-01T00:53:13;1.98;;;1.20;;
31114;SDS011;17764;47.152;9.828;2022-08-01T00:55:40;1.40;;;0.90;;
31114;SDS011;17764;47.152;9.828;2022-08-01T00:58:06;1.20;;;1.10;;
31114;SDS011;17764;47.152;9.828;2022-08-01T01:00:34;1.30;;;1.20;;
31114;SDS011;17764;47.152;9.828;2022-08-01T01:03:00;2.47;;;1.00;;
31114;SDS011;17764;47.152;9.828;2022-08-01T01:05:26;1.60;;;1.10;;
31114;SDS011;17764;47.152;9.828;2022-08-01T01:08:05;1.10;;;1.00;;
31114;SDS011;17764;47.152;9.828;2022-08-01T01:10:55;1.20;;;1.00;;
31114;SDS011;17764;47.152;9.828;2022-08-01T01:15:58;1.63;;;1.20;;
31114;SDS011;17764;47.152;9.828;2022-08-01T01:23:58;1.02;;;0.90;;
31114;SDS011;17764;47.152;9.828;2022-08-01T01:29:44;1.40;;;1.20;;
31114;SDS011;17764;47.152;9.828;2022-08-01T01:32:17;1.20;;;0.85;;
31114;SDS011;17764;47.152;9.828;2022-08-01T01:34:44;1.38;;;1.20;;
31114;SDS011;17764;47.152;9.828;2022-08-01T01:37:16;1.88;;;1.30;;
31114;SDS011;17764;47.152;9.828;2022-08-01T01:39:46;1.52;;;1.08;;
31114;SDS011;17764;47.152;9.828;2022-08-01T01:42:16;1.45;;;1.20;;
31114;SDS011;17764;47.152;9.828;2022-08-01T01:44:43;1.60;;;1.10;;
31114;SDS011;17764;47.152;9.828;2022-08-01T01:47:09;1.20;;;1.10;;
31114;SDS011;17764;47.152;9.828;2022-08-01T01:49:35;1.80;;;1.20;;
31114;SDS011;17764;47.152;9.828;2022-08-01T01:52:02;2.40;;;1.10;;
31114;SDS011;17764;47.152;9.828;2022-08-01T01:54:33;2.63;;;1.30;;
31114;SDS011;17764;47.152;9.828;2022-08-01T01:57:04;1.20;;;1.10;;
31114;SDS011;17764;47.152;9.828;2022-08-01T01:59:31;1.90;;;1.25;;
31114;SDS011;17764;47.152;9.828;2022-08-01T02:02:01;1.73;;;1.10;;
31114;SDS011;17764;47.152;9.828;2022-08-01T02:04:27;1.52;;;1.20;;
31114;SDS011;17764;47.152;9.828;2022-08-01T02:06:53;1.20;;;1.10;;
31114;SDS011;17764;47.152;9.828;2022-08-01T02:09:20;2.22;;;1.20;;
31114;SDS011;17764;47.152;9.828;2022-08-01T02:11:47;1.20;;;1.10;;
31114;SDS011;17764;47.152;9.828;2022-08-01T02:14:14;1.45;;;1.20;;
31114;SDS011;17764;47.152;9.828;2022-08-01T02:16:44;1.55;;;1.15;;
31114;SDS011;17764;47.152;9.828;2022-08-01T02:19:13;1.80;;;0.98;;
31114;SDS011;17764;47.152;9.828;2022-08-01T02:26:54;1.20;;;1.10;;
31114;SDS011;17764;47.152;9.828;2022-08-01T02:29:27;2.85;;;1.15;;
31114;SDS011;17764;47.152;9.828;2022-08-01T02:31:56;1.42;;;1.30;;
31114;SDS011;17764;47.152;9.828;2022-08-01T02:34:23;1.98;;;1.20;;
31114;SDS011;17764;47.152;9.828;2022-08-01T02:36:53;1.30;;;1.05;;
31114;SDS011;17764;47.152;9.828;2022-08-01T02:39:20;1.90;;;1.35;;
31114;SDS011;17764;47.152;9.828;2022-08-01T02:41:47;1.27;;;1.10;;
31114;SDS011;17764;47.152;9.828;2022-08-01T02:44:16;2.80;;;1.25;;
31114;SDS011;17764;47.152;9.828;2022-08-01T02:46:51;2.47;;;1.10;;
31114;SDS011;17764;47.152;9.828;2022-08-01T02:49:18;3.40;;;1.10;;
31114;SDS011;17764;47.152;9.828;2022-08-01T02:51:46;1.38;;;1.25;;
31114;SDS011;17764;47.152;9.828;2022-08-01T02:54:14;1.70;;;1.23;;
31114;SDS011;17764;47.152;9.828;2022-08-01T02:56:40;1.33;;;1.17;;
31114;SDS011;17764;47.152;9.828;2022-08-01T02:59:08;2.42;;;1.17;;
31114;SDS011;17764;47.152;9.828;2022-08-01T03:01:39;2.78;;;1.60;;
31114;SDS011;17764;47.152;9.828;2022-08-01T03:04:06;3.20;;;1.27;;
31114;SDS011;17764;47.152;9.828;2022-08-01T03:06:32;2.97;;;1.45;;
31114;SDS011;17764;47.152;9.828;2022-08-01T03:09:02;1.38;;;1.27;;
31114;SDS011;17764;47.152;9.828;2022-08-01T03:11:29;1.70;;;1.50;;
31114;SDS011;17764;47.152;9.828;2022-08-01T03:13:59;3.08;;;1.33;;
31114;SDS011;17764;47.152;9.828;2022-08-01T03:16:28;1.40;;;1.23;;
31114;SDS011;17764;47.152;9.828;2022-08-01T03:18:56;1.95;;;1.33;;
31114;SDS011;17764;47.152;9.828;2022-08-01T03:21:23;1.40;;;1.30;;
31114;SDS011;17764;47.152;9.828;2022-08-01T03:23:49;1.42;;;1.33;;
31114;SDS011;17764;47.152;9.828;2022-08-01T03:26:18;2.50;;;1.88;;
31114;SDS011;17764;47.152;9.828;2022-08-01T03:28:45;3.25;;;2.55;;
31114;SDS011;17764;47.152;9.828;2022-08-01T03:31:12;2.60;;;2.17;;
31114;SDS011;17764;47.152;9.828;2022-08-01T03:33:39;2.50;;;2.17;;
31114;SDS011;17764;47.152;9.828;2022-08-01T03:36:05;1.63;;;1.40;;
31114;SDS011;17764;47.152;9.828;2022-08-01T03:38:35;3.10;;;1.60;;
31114;SDS011;17764;47.152;9.828;2022-08-01T03:41:06;1.77;;;1.42;;
31114;SDS011;17764;47.152;9.828;2022-08-01T03:43:43;1.98;;;1.10;;
31114;SDS011;17764;47.152;9.828;2022-08-01T03:46:22;1.38;;;1.20;;
31114;SDS011;17764;47.152;9.828;2022-08-01T03:48:52;2.28;;;1.38;;
31114;SDS011;17764;47.152;9.828;2022-08-01T03:51:20;1.67;;;1.25;;
31114;SDS011;17764;47.152;9.828;2022-08-01T03:53:47;1.65;;;1.17;;
31114;SDS011;17764;47.152;9.828;2022-08-01T03:56:16;2.17;;;1.27;;
31114;SDS011;17764;47.152;9.828;2022-08-01T03:58:44;2.88;;;1.33;;
31114;SDS011;17764;47.152;9.828;2022-08-01T04:01:11;1.70;;;1.25;;
31114;SDS011;17764;47.152;9.828;2022-08-01T04:03:37;3.88;;;1.50;;
31114;SDS011;17764;47.152;9.828;2022-08-01T04:06:03;2.22;;;1.45;;
31114;SDS011;17764;47.152;9.828;2022-08-01T04:08:36;2.47;;;1.30;;
31114;SDS011;17764;47.152;9.828;2022-08-01T04:11:03;2.50;;;2.30;;
31114;SDS011;17764;47.152;9.828;2022-08-01T04:13:30;1.95;;;1.73;;
31114;SDS011;17764;47.152;9.828;2022-08-01T04:15:56;1.80;;;1.60;;
31114;SDS011;17764;47.152;9.828;2022-08-01T04:18:22;1.85;;;1.60;;
31114;SDS011;17764;47.152;9.828;2022-08-01T04:20:48;2.90;;;1.58;;
31114;SDS011;17764;47.152;9.828;2022-08-01T04:23:15;2.28;;;1.55;;
31114;SDS011;17764;47.152;9.828;2022-08-01T04:25:42;1.88;;;1.50;;
31114;SDS011;17764;47.152;9.828;2022-08-01T04:28:08;1.73;;;1.27;;
31114;SDS011;17764;47.152;9.828;2022-08-01T04:30:41;3.03;;;1.20;;
31114;SDS011;17764;47.152;9.828;2022-08-01T04:33:07;1.90;;;1.45;;
31114;SDS011;17764;47.152;9.828;2022-08-01T04:35:34;1.60;;;1.30;;
31114;SDS011;17764;47.152;9.828;2022-08-01T04:38:03;2.33;;;1.45;;
31114;SDS011;17764;47.152;9.828;2022-08-01T04:40:29;3.25;;;1.48;;
31114;SDS011;17764;47.152;9.828;2022-08-01T04:42:55;2.47;;;1.48;;
31114;SDS011;17764;47.152;9.828;2022-08-01T04:45:21;1.35;;;1.25;;
31114;SDS011;17764;47.152;9.828;2022-08-01T04:47:48;2.03;;;1.33;;
31114;SDS011;17764;47.152;9.828;2022-08-01T04:50:14;1.65;;;1.38;;
31114;SDS011;17764;47.152;9.828;2022-08-01T04:52:41;3.20;;;1.60;;
31114;SDS011;17764;47.152;9.828;2022-08-01T04:55:07;1.63;;;1.50;;
31114;SDS011;17764;47.152;9.828;2022-08-01T04:57:37;2.53;;;1.50;;
31114;SDS011;17764;47.152;9.828;2022-08-01T05:00:06;2.78;;;1.45;;
31114;SDS011;17764;47.152;9.828;2022-08-01T05:02:33;2.67;;;1.40;;
31114;SDS011;17764;47.152;9.828;2022-08-01T05:04:58;2.80;;;1.30;;
31114;SDS011;17764;47.152;9.828;2022-08-01T05:07:24;2.05;;;1.20;;
31114;SDS011;17764;47.152;9.828;2022-08-01T05:09:50;2.90;;;1.48;;
31114;SDS011;17764;47.152;9.828;2022-08-01T05:12:16;1.77;;;1.35;;
31114;SDS011;17764;47.152;9.828;2022-08-01T05:14:42;1.77;;;1.23;;
31114;SDS011;17764;47.152;9.828;2022-08-01T05:17:09;1.85;;;1.55;;
31114;SDS011;17764;47.152;9.828;2022-08-01T05:19:36;1.63;;;1.23;;
31114;SDS011;17764;47.152;9.828;2022-08-01T05:22:04;1.63;;;1.40;;
31114;SDS011;17764;47.152;9.828;2022-08-01T05:24:30;1.48;;;1.30;;
31114;SDS011;17764;47.152;9.828;2022-08-01T05:26:57;1.50;;;1.40;;
31114;SDS011;17764;47.152;9.828;2022-08-01T05:29:23;1.85;;;1.50;;
31114;SDS011;17764;47.152;9.828;2022-08-01T05:31:50;1.63;;;1.48;;
31114;SDS011;17764;47.152;9.828;2022-08-01T05:34:16;3.20;;;1.77;;
31114;SDS011;17764;47.152;9.828;2022-08-01T05:36:42;4.05;;;1.80;;
31114;SDS011;17764;47.152;9.828;2022-08-01T05:39:08;2.25;;;1.30;;
31114;SDS011;17764;47.152;9.828;2022-08-01T05:41:35;2.22;;;1.63;;
31114;SDS011;17764;47.152;9.828;2022-08-01T05:44:01;4.07;;;1.73;;
31114;SDS011;17764;47.152;9.828;2022-08-01T05:46:27;2.72;;;1.48;;
31114;SDS011;17764;47.152;9.828;2022-08-01T05:48:55;2.60;;;1.50;;
31114;SDS011;17764;47.152;9.828;2022-08-01T05:51:21;2.95;;;1.40;;
31114;SDS011;17764;47.152;9.828;2022-08-01T05:53:47;1.95;;;1.40;;
31114;SDS011;17764;47.152;9.828;2022-08-01T05:56:13;2.28;;;1.33;;
31114;SDS011;17764;47.152;9.828;2022-08-01T05:58:39;2.63;;;1.42;;
31114;SDS011;17764;47.152;9.828;2022-08-01T06:01:06;2.95;;;1.33;;
31114;SDS011;17764;47.152;9.828;2022-08-01T06:03:32;2.03;;;1.40;;
31114;SDS011;17764;47.152;9.828;2022-08-01T06:05:58;2.33;;;1.60;;
31114;SDS011;17764;47.152;9.828;2022-08-01T06:08:24;3.13;;;1.35;;
31114;SDS011;17764;47.152;9.828;2022-08-01T06:10:50;3.00;;;1.30;;
31114;SDS011;17764;47.152;9.828;2022-08-01T06:13:16;1.75;;;1.50;;
31114;SDS011;17764;47.152;9.828;2022-08-01T06:15:44;2.22;;;1.63;;
31114;SDS011;17764;47.152;9.828;2022-08-01T06:18:10;4.80;;;1.60;;
31114;SDS011;17764;47.152;9.828;2022-08-01T06:20:36;2.95;;;1.13;;
31114;SDS011;17764;47.152;9.828;2022-08-01T06:23:02;2.28;;;1.60;;
31114;SDS011;17764;47.152;9.828;2022-08-01T06:25:29;1.88;;;1.48;;
31114;SDS011;17764;47.152;9.828;2022-08-01T06:27:55;2.30;;;1.38;;
31114;SDS011;17764;47.152;9.828;2022-08-01T06:30:21;2.13;;;1.30;;
31114;SDS011;17764;47.152;9.828;2022-08-01T06:32:46;1.60;;;1.50;;
31114;SDS011;17764;47.152;9.828;2022-08-01T06:35:13;2.40;;;1.63;;
31114;SDS011;17764;47.152;9.828;2022-08-01T06:37:39;7.13;;;1.25;;
31114;SDS011;17764;47.152;9.828;2022-08-01T06:40:05;2.08;;;1.55;;
31114;SDS011;17764;47.152;9.828;2022-08-01T06:42:32;1.85;;;1.50;;
31114;SDS011;17764;47.152;9.828;2022-08-01T06:45:05;1.65;;;1.40;;
31114;SDS011;17764;47.152;9.828;2022-08-01T06:47:32;3.90;;;1.60;;
31114;SDS011;17764;47.152;9.828;2022-08-01T06:49:58;1.58;;;1.40;;
31114;SDS011;17764;47.152;9.828;2022-08-01T06:52:24;2.20;;;1.40;;
31114;SDS011;17764;47.152;9.828;2022-08-01T06:54:51;2.22;;;1.60;;
31114;SDS011;17764;47.152;9.828;2022-08-01T06:57:16;2.22;;;1.60;;
31114;SDS011;17764;47.152;9.828;2022-08-01T06:59:43;2.42;;;1.65;;
31114;SDS011;17764;47.152;9.828;2022-08-01T07:02:08;1.73;;;1.63;;
31114;SDS011;17764;47.152;9.828;2022-08-01T07:04:34;2.72;;;1.70;;
31114;SDS011;17764;47.152;9.828;2022-08-01T07:07:00;2.75;;;1.30;;
31114;SDS011;17764;47.152;9.828;2022-08-01T07:09:26;2.08;;;1.48;;
31114;SDS011;17764;47.152;9.828;2022-08-01T07:11:53;1.77;;;1.42;;
31114;SDS011;17764;47.152;9.828;2022-08-01T07:14:22;2.00;;;1.25;;
31114;SDS011;17764;47.152;9.828;2022-08-01T07:16:48;2.03;;;1.38;;
31114;SDS011;17764;47.152;9.828;2022-08-01T07:19:14;1.77;;;1.40;;
31114;SDS011;17764;47.152;9.828;2022-08-01T07:21:40;1.67;;;1.38;;
31114;SDS011;17764;47.152;9.828;2022-08-01T07:24:07;2.75;;;1.40;;
31114;SDS011;17764;47.152;9.828;2022-08-01T07:26:34;2.72;;;1.90;;
31114;SDS011;17764;47.152;9.828;2022-08-01T07:29:00;2.30;;;2.00;;
31114;SDS011;17764;47.152;9.828;2022-08-01T07:31:26;2.00;;;1.70;;
31114;SDS011;17764;47.152;9.828;2022-08-01T07:33:52;3.63;;;1.95;;
31114;SDS011;17764;47.152;9.828;2022-08-01T07:36:18;2.92;;;1.95;;
31114;SDS011;17764;47.152;9.828;2022-08-01T07:38:44;3.03;;;2.08;;
31114;SDS011;17764;47.152;9.828;2022-08-01T07:41:10;3.28;;;1.90;;
31114;SDS011;17764;47.152;9.828;2022-08-01T07:43:36;2.95;;;2.33;;
31114;SDS011;17764;47.152;9.828;2022-08-01T07:46:05;3.05;;;2.33;;
31114;SDS011;17764;47.152;9.828;2022-08-01T07:48:31;2.08;;;1.83;;
31114;SDS011;17764;47.152;9.828;2022-08-01T07:50:58;3.40;;;1.73;;
31114;SDS011;17764;47.152;9.828;2022-08-01T07:53:24;2.08;;;1.80;;
31114;SDS011;17764;47.152;9.828;2022-08-01T07:55:50;3.03;;;1.90;;
31114;SDS011;17764;47.152;9.828;2022-08-01T07:58:17;2.22;;;1.63;;
31114;SDS011;17764;47.152;9.828;2022-08-01T08:00:43;2.75;;;1.75;;
31114;SDS011;17764;47.152;9.828;2022-08-01T08:03:08;4.03;;;1.92;;
31114;SDS011;17764;47.152;9.828;2022-08-01T08:05:35;2.25;;;1.38;;
31114;SDS011;17764;47.152;9.828;2022-08-01T08:08:04;2.38;;;1.75;;
31114;SDS011;17764;47.152;9.828;2022-08-01T08:10:31;5.13;;;2.10;;
31114;SDS011;17764;47.152;9.828;2022-08-01T08:12:57;2.28;;;1.75;;
31114;SDS011;17764;47.152;9.828;2022-08-01T08:15:22;2.35;;;1.70;;
31114;SDS011;17764;47.152;9.828;2022-08-01T08:17:48;2.17;;;1.85;;
31114;SDS011;17764;47.152;9.828;2022-08-01T08:20:14;2.17;;;1.63;;
31114;SDS011;17764;47.152;9.828;2022-08-01T08:22:40;3.00;;;1.80;;
31114;SDS011;17764;47.152;9.828;2022-08-01T08:25:07;2.30;;;1.77;;
31114;SDS011;17764;47.152;9.828;2022-08-01T08:27:34;1.92;;;1.50;;
31114;SDS011;17764;47.152;9.828;2022-08-01T08:30:00;1.92;;;1.48;;
31114;SDS011;17764;47.152;9.828;2022-08-01T08:32:26;2.97;;;1.77;;
31114;SDS011;17764;47.152;9.828;2022-08-01T08:34:52;1.67;;;1.40;;
31114;SDS011;17764;47.152;9.828;2022-08-01T08:37:18;2.03;;;1.55;;
31114;SDS011;17764;47.152;9.828;2022-08-01T08:39:44;2.45;;;1.67;;
31114;SDS011;17764;47.152;9.828;2022-08-01T08:42:11;1.83;;;1.60;;
31114;SDS011;17764;47.152;9.828;2022-08-01T08:44:37;4.78;;;1.88;;
31114;SDS011;17764;47.152;9.828;2022-08-01T08:47:06;2.13;;;1.65;;
31114;SDS011;17764;47.152;9.828;2022-08-01T08:49:33;3.38;;;2.17;;
31114;SDS011;17764;47.152;9.828;2022-08-01T08:51:59;3.10;;;2.00;;
31114;SDS011;17764;47.152;9.828;2022-08-01T08:54:26;1.85;;;1.60;;
31114;SDS011;17764;47.152;9.828;2022-08-01T08:56:53;2.00;;;1.80;;
31114;SDS011;17764;47.152;9.828;2022-08-01T08:59:20;2.15;;;1.70;;
31114;SDS011;17764;47.152;9.828;2022-08-01T09:01:46;3.45;;;1.80;;
31114;SDS011;17764;47.152;9.828;2022-08-01T09:04:12;4.85;;;1.80;;
31114;SDS011;17764;47.152;9.828;2022-08-01T09:06:38;3.67;;;2.00;;
31114;SDS011;17764;47.152;9.828;2022-08-01T09:09:05;3.88;;;1.85;;
31114;SDS011;17764;47.152;9.828;2022-08-01T09:11:31;2.40;;;1.77;;
31114;SDS011;17764;47.152;9.828;2022-08-01T09:14:09;3.17;;;1.88;;
31114;SDS011;17764;47.152;9.828;2022-08-01T09:16:36;2.03;;;1.77;;
31114;SDS011;17764;47.152;9.828;2022-08-01T09:19:15;2.78;;;1.75;;
31114;SDS011;17764;47.152;9.828;2022-08-01T09:21:55;2.13;;;1.52;;
31114;SDS011;17764;47.152;9.828;2022-08-01T09:24:21;1.80;;;1.70;;
31114;SDS011;17764;47.152;9.828;2022-08-01T09:26:47;2.15;;;1.60;;
31114;SDS011;17764;47.152;9.828;2022-08-01T09:29:19;4.20;;;1.95;;
31114;SDS011;17764;47.152;9.828;2022-08-01T09:31:46;2.80;;;1.85;;
31114;SDS011;17764;47.152;9.828;2022-08-01T09:34:13;3.65;;;1.42;;
31114;SDS011;17764;47.152;9.828;2022-08-01T09:36:59;3.38;;;1.83;;
31114;SDS011;17764;47.152;9.828;2022-08-01T09:39:45;4.90;;;1.75;;
31114;SDS011;17764;47.152;9.828;2022-08-01T09:42:21;2.90;;;1.58;;
31114;SDS011;17764;47.152;9.828;2022-08-01T09:44:48;2.03;;;1.60;;
31114;SDS011;17764;47.152;9.828;2022-08-01T09:47:14;3.03;;;1.73;;
31114;SDS011;17764;47.152;9.828;2022-08-01T09:49:42;3.58;;;1.63;;
31114;SDS011;17764;47.152;9.828;2022-08-01T09:52:10;4.38;;;1.77;;
31114;SDS011;17764;47.152;9.828;2022-08-01T09:54:41;2.63;;;1.80;;
31114;SDS011;17764;47.152;9.828;2022-08-01T09:57:11;3.70;;;1.77;;
31114;SDS011;17764;47.152;9.828;2022-08-01T09:59:38;2.53;;;1.70;;
31114;SDS011;17764;47.152;9.828;2022-08-01T10:02:07;3.30;;;1.60;;
31114;SDS011;17764;47.152;9.828;2022-08-01T10:04:35;2.40;;;1.80;;
31114;SDS011;17764;47.152;9.828;2022-08-01T10:07:06;2.45;;;1.63;;
31114;SDS011;17764;47.152;9.828;2022-08-01T10:09:35;4.80;;;2.13;;
31114;SDS011;17764;47.152;9.828;2022-08-01T10:12:02;2.72;;;1.55;;
31114;SDS011;17764;47.152;9.828;2022-08-01T10:14:29;2.10;;;1.65;;
31114;SDS011;17764;47.152;9.828;2022-08-01T10:16:56;4.50;;;1.90;;
31114;SDS011;17764;47.152;9.828;2022-08-01T10:19:24;2.58;;;1.67;;
31114;SDS011;17764;47.152;9.828;2022-08-01T10:21:51;3.85;;;1.73;;
31114;SDS011;17764;47.152;9.828;2022-08-01T10:24:19;3.05;;;2.00;;
31114;SDS011;17764;47.152;9.828;2022-08-01T10:26:47;1.73;;;1.60;;
31114;SDS011;17764;47.152;9.828;2022-08-01T10:29:14;4.07;;;1.77;;
31114;SDS011;17764;47.152;9.828;2022-08-01T10:31:43;3.05;;;1.75;;
31114;SDS011;17764;47.152;9.828;2022-08-01T10:34:09;2.65;;;1.80;;
31114;SDS011;17764;47.152;9.828;2022-08-01T10:36:36;3.53;;;1.90;;
31114;SDS011;17764;47.152;9.828;2022-08-01T10:39:05;7.47;;;1.95;;
31114;SDS011;17764;47.152;9.828;2022-08-01T10:41:32;3.03;;;1.85;;
31114;SDS011;17764;47.152;9.828;2022-08-01T10:44:00;5.07;;;1.75;;
31114;SDS011;17764;47.152;9.828;2022-08-01T10:46:27;4.18;;;1.80;;
31114;SDS011;17764;47.152;9.828;2022-08-01T10:49:02;2.67;;;1.70;;
31114;SDS011;17764;47.152;9.828;2022-08-01T10:51:31;1.88;;;1.70;;
31114;SDS011;17764;47.152;9.828;2022-08-01T10:54:02;2.38;;;1.70;;
31114;SDS011;17764;47.152;9.828;2022-08-01T10:56:44;1.90;;;1.50;;
31114;SDS011;17764;47.152;9.828;2022-08-01T11:00:22;2.80;;;1.70;;
31114;SDS011;17764;47.152;9.828;2022-08-01T11:03:01;4.43;;;1.80;;
31114;SDS011;17764;47.152;9.828;2022-08-01T11:05:32;3.67;;;1.98;;
31114;SDS011;17764;47.152;9.828;2022-08-01T11:08:01;3.80;;;1.73;;
31114;SDS011;17764;47.152;9.828;2022-08-01T11:10:45;2.45;;;1.40;;
31114;SDS011;17764;47.152;9.828;2022-08-01T11:13:12;1.52;;;1.42;;
31114;SDS011;17764;47.152;9.828;2022-08-01T11:15:39;2.40;;;1.42;;
31114;SDS011;17764;47.152;9.828;2022-08-01T11:20:57;4.93;;;1.55;;
31114;SDS011;17764;47.152;9.828;2022-08-01T11:23:29;2.55;;;1.60;;
31114;SDS011;17764;47.152;9.828;2022-08-01T11:28:27;3.78;;;1.30;;
31114;SDS011;17764;47.152;9.828;2022-08-01T11:31:24;2.70;;;1.25;;
31114;SDS011;17764;47.152;9.828;2022-08-01T11:38:44;2.08;;;1.60;;
31114;SDS011;17764;47.152;9.828;2022-08-01T11:54:36;5.47;;;1.45;;
31114;SDS011;17764;47.152;9.828;2022-08-01T11:57:03;3.50;;;1.70;;
31114;SDS011;17764;47.152;9.828;2022-08-01T11:59:34;2.38;;;1.50;;
31114;SDS011;17764;47.152;9.828;2022-08-01T12:04:52;2.17;;;1.20;;
31114;SDS011;17764;47.152;9.828;2022-08-01T12:07:19;2.30;;;1.30;;
31114;SDS011;17764;47.152;9.828;2022-08-01T12:09:46;2.90;;;1.40;;
31114;SDS011;17764;47.152;9.828;2022-08-01T12:12:16;1.83;;;1.38;;
31114;SDS011;17764;47.152;9.828;2022-08-01T12:14:43;1.80;;;1.13;;
31114;SDS011;17764;47.152;9.828;2022-08-01T12:17:09;2.40;;;1.40;;
31114;SDS011;17764;47.152;9.828;2022-08-01T12:19:35;2.30;;;1.33;;
31114;SDS011;17764;47.152;9.828;2022-08-01T12:22:08;2.72;;;1.30;;
31114;SDS011;17764;47.152;9.828;2022-08-01T12:24:35;7.45;;;1.38;;
31114;SDS011;17764;47.152;9.828;2022-08-01T12:27:01;3.60;;;1.65;;
31114;SDS011;17764;47.152;9.828;2022-08-01T12:29:31;4.43;;;1.70;;
31114;SDS011;17764;47.152;9.828;2022-08-01T12:31:57;1.95;;;1.48;;
31114;SDS011;17764;47.152;9.828;2022-08-01T12:34:27;2.50;;;1.45;;
31114;SDS011;17764;47.152;9.828;2022-08-01T12:36:54;2.65;;;1.50;;
31114;SDS011;17764;47.152;9.828;2022-08-01T12:39:33;5.97;;;1.45;;
31114;SDS011;17764;47.152;9.828;2022-08-01T12:42:00;4.03;;;1.50;;
31114;SDS011;17764;47.152;9.828;2022-08-01T12:44:27;5.45;;;1.83;;
31114;SDS011;17764;47.152;9.828;2022-08-01T12:46:54;2.10;;;1.40;;
31114;SDS011;17764;47.152;9.828;2022-08-01T12:49:20;1.52;;;1.42;;
31114;SDS011;17764;47.152;9.828;2022-08-01T12:51:47;3.63;;;1.35;;
31114;SDS011;17764;47.152;9.828;2022-08-01T12:54:13;2.08;;;1.70;;
31114;SDS011;17764;47.152;9.828;2022-08-01T12:56:39;2.40;;;1.50;;
31114;SDS011;17764;47.152;9.828;2022-08-01T12:59:24;1.50;;;1.38;;
31114;SDS011;17764;47.152;9.828;2022-08-01T13:01:54;3.25;;;1.50;;
31114;SDS011;17764;47.152;9.828;2022-08-01T13:04:21;5.28;;;1.80;;
31114;SDS011;17764;47.152;9.828;2022-08-01T13:06:47;2.35;;;1.63;;
31114;SDS011;17764;47.152;9.828;2022-08-01T13:09:17;3.20;;;1.45;;
31114;SDS011;17764;47.152;9.828;2022-08-01T13:11:44;2.33;;;1.45;;
31114;SDS011;17764;47.152;9.828;2022-08-01T13:14:25;3.17;;;1.60;;
31114;SDS011;17764;47.152;9.828;2022-08-01T13:16:52;2.13;;;1.33;;
31114;SDS011;17764;47.152;9.828;2022-08-01T13:19:18;3.45;;;1.30;;
31114;SDS011;17764;47.152;9.828;2022-08-01T13:21:57;3.20;;;1.65;;
31114;SDS011;17764;47.152;9.828;2022-08-01T13:24:24;2.97;;;1.45;;
31114;SDS011;17764;47.152;9.828;2022-08-01T13:26:55;1.98;;;1.50;;
31114;SDS011;17764;47.152;9.828;2022-08-01T13:31:56;2.35;;;1.30;;
31114;SDS011;17764;47.152;9.828;2022-08-01T13:34:29;2.22;;;1.40;;
31114;SDS011;17764;47.152;9.828;2022-08-01T13:36:55;2.25;;;1.60;;
31114;SDS011;17764;47.152;9.828;2022-08-01T13:39:21;2.65;;;1.60;;
31114;SDS011;17764;47.152;9.828;2022-08-01T13:42:06;2.00;;;1.50;;
31114;SDS011;17764;47.152;9.828;2022-08-01T13:44:41;2.00;;;1.52;;
31114;SDS011;17764;47.152;9.828;2022-08-01T13:47:10;2.97;;;1.63;;
31114;SDS011;17764;47.152;9.828;2022-08-01T13:49:36;2.80;;;1.60;;
31114;SDS011;17764;47.152;9.828;2022-08-01T13:52:02;2.13;;;1.38;;
31114;SDS011;17764;47.152;9.828;2022-08-01T13:54:30;2.30;;;1.35;;
31114;SDS011;17764;47.152;9.828;2022-08-01T13:56:56;2.50;;;1.40;;
31114;SDS011;17764;47.152;9.828;2022-08-01T13:59:22;1.33;;;1.17;;
31114;SDS011;17764;47.152;9.828;2022-08-01T14:01:48;1.95;;;1.40;;
31114;SDS011;17764;47.152;9.828;2022-08-01T14:04:15;2.65;;;1.63;;
31114;SDS011;17764;47.152;9.828;2022-08-01T14:06:41;2.03;;;1.50;;
31114;SDS011;17764;47.152;9.828;2022-08-01T14:09:07;6.32;;;1.70;;
31114;SDS011;17764;47.152;9.828;2022-08-01T14:11:33;5.72;;;1.42;;
31114;SDS011;17764;47.152;9.828;2022-08-01T14:13:59;2.33;;;1.65;;
31114;SDS011;17764;47.152;9.828;2022-08-01T14:16:25;3.47;;;1.73;;
31114;SDS011;17764;47.152;9.828;2022-08-01T14:18:51;1.98;;;1.50;;
31114;SDS011;17764;47.152;9.828;2022-08-01T14:21:18;2.22;;;1.58;;
31114;SDS011;17764;47.152;9.828;2022-08-01T14:23:44;2.80;;;1.55;;
31114;SDS011;17764;47.152;9.828;2022-08-01T14:26:11;1.90;;;1.58;;
31114;SDS011;17764;47.152;9.828;2022-08-01T14:28:37;5.05;;;1.83;;
31114;SDS011;17764;47.152;9.828;2022-08-01T14:31:03;2.50;;;1.45;;
31114;SDS011;17764;47.152;9.828;2022-08-01T14:33:32;2.30;;;1.70;;
31114;SDS011;17764;47.152;9.828;2022-08-01T14:35:59;2.40;;;1.42;;
31114;SDS011;17764;47.152;9.828;2022-08-01T14:38:25;3.25;;;1.88;;
31114;SDS011;17764;47.152;9.828;2022-08-01T14:40:51;2.45;;;1.60;;
31114;SDS011;17764;47.152;9.828;2022-08-01T14:43:18;2.20;;;1.60;;
31114;SDS011;17764;47.152;9.828;2022-08-01T14:45:44;4.38;;;1.63;;
31114;SDS011;17764;47.152;9.828;2022-08-01T14:48:10;2.22;;;1.70;;
31114;SDS011;17764;47.152;9.828;2022-08-01T14:50:36;2.58;;;1.65;;
31114;SDS011;17764;47.152;9.828;2022-08-01T14:53:03;3.80;;;1.83;;
31114;SDS011;17764;47.152;9.828;2022-08-01T14:55:29;2.67;;;1.80;;
31114;SDS011;17764;47.152;9.828;2022-08-01T14:57:55;4.65;;;1.70;;
31114;SDS011;17764;47.152;9.828;2022-08-01T15:00:21;3.55;;;1.75;;
31114;SDS011;17764;47.152;9.828;2022-08-01T15:02:47;1.98;;;1.58;;
31114;SDS011;17764;47.152;9.828;2022-08-01T15:05:13;2.53;;;1.80;;
31114;SDS011;17764;47.152;9.828;2022-08-01T15:07:39;1.88;;;1.50;;
31114;SDS011;17764;47.152;9.828;2022-08-01T15:10:05;3.33;;;1.92;;
31114;SDS011;17764;47.152;9.828;2022-08-01T15:12:32;1.85;;;1.42;;
31114;SDS011;17764;47.152;9.828;2022-08-01T15:14:59;1.75;;;1.55;;
31114;SDS011;17764;47.152;9.828;2022-08-01T15:17:26;1.52;;;1.40;;
31114;SDS011;17764;47.152;9.828;2022-08-01T15:19:57;3.92;;;1.50;;
31114;SDS011;17764;47.152;9.828;2022-08-01T15:22:24;2.58;;;1.55;;
31114;SDS011;17764;47.152;9.828;2022-08-01T15:24:51;2.35;;;1.70;;
31114;SDS011;17764;47.152;9.828;2022-08-01T15:27:17;1.52;;;1.40;;
31114;SDS011;17764;47.152;9.828;2022-08-01T15:29:43;3.75;;;1.60;;
31114;SDS011;17764;47.152;9.828;2022-08-01T15:32:10;1.73;;;1.40;;
31114;SDS011;17764;47.152;9.828;2022-08-01T15:34:36;6.45;;;1.65;;
31114;SDS011;17764;47.152;9.828;2022-08-01T15:37:05;4.18;;;1.48;;
31114;SDS011;17764;47.152;9.828;2022-08-01T15:39:32;2.72;;;1.50;;